Historique des stations

Station météo de Oisy

Altitude de la station : 221 m







Données météorologiques pour le 23/07/2021
Date
Heure
Températures Humidité Point de rosée Vitesse
du vent
Direction Rafales Windchill Pression Pluviométrie
Cumul
Date
Heure
Températures Humidité Point de rosée Vitesse
du vent
Direction Rafales Windchill Pression Pluviométrie
Cumul
23/07/2021 23:1522.1 °C74 %17.2 °C2 km/hONO3 km/h22.2 1006 hPa-
23/07/2021 23:0023.3 °C68 %17.2 °C-E2 km/h23.3 1006 hPa-
23/07/2021 22:4523.3 °C68 %17.2 °C---23.3 1006 hPa-
23/07/2021 22:3023.9 °C66 %17.2 °C-E2 km/h23.9 1006 hPa-
23/07/2021 22:1525.1 °C62 %17.2 °C-E2 km/h25.0 1006 hPa-
23/07/2021 22:0025.3 °C60 %17.2 °C2 km/hENE6 km/h25.6 1006 hPa-
23/07/2021 21:4525.7 °C59 %17.2 °C-E5 km/h25.6 1006 hPa-
23/07/2021 21:3026.3 °C57 %17.2 °C-ENE5 km/h26.1 1006 hPa-
23/07/2021 21:1527.1 °C55 %17.2 °C-ENE8 km/h27.2 1006 hPa-
23/07/2021 21:0027.5 °C54 %17.2 °C-ENE5 km/h27.8 1006 hPa-
23/07/2021 20:4528.0 °C51 %16.7 °C8 km/hESE13 km/h27.8 1006 hPa-
23/07/2021 20:3028.3 °C54 %18.3 °C6 km/hENE11 km/h28.3 1006 hPa-
23/07/2021 20:1528.2 °C55 %18.3 °C5 km/hENE10 km/h28.3 1006 hPa-
23/07/2021 20:0028.5 °C53 %17.8 °C5 km/hE10 km/h28.3 1006 hPa-
23/07/2021 19:4528.9 °C52 %17.8 °C-ENE14 km/h28.9 1006 hPa-
23/07/2021 19:3029.2 °C50 %17.8 °C11 km/hE16 km/h29.4 1006 hPa-
23/07/2021 19:1529.6 °C48 %17.2 °C10 km/hENE14 km/h29.4 1006 hPa-
23/07/2021 19:0029.6 °C48 %17.2 °C10 km/hE19 km/h29.4 1006 hPa-
23/07/2021 18:4529.4 °C49 %17.8 °C11 km/hENE23 km/h29.4 1006 hPa-
23/07/2021 18:3029.7 °C48 %17.2 °C10 km/hE19 km/h29.4 1006 hPa-
23/07/2021 18:1529.8 °C48 %17.8 °C8 km/hE23 km/h30.0 1006 hPa-
23/07/2021 18:0030.1 °C48 %17.8 °C11 km/hENE18 km/h30.0 1007 hPa-
23/07/2021 17:4530.1 °C47 %17.8 °C11 km/hE21 km/h30.0 1007 hPa-
23/07/2021 17:3030.1 °C49 %18.3 °C11 km/hNE19 km/h30.0 1007 hPa-
23/07/2021 17:1429.5 °C49 %17.8 °C10 km/hENE23 km/h29.4 1007 hPa-
23/07/2021 16:5929.4 °C50 %17.8 °C10 km/hENE19 km/h29.4 1007 hPa-
23/07/2021 16:4529.2 °C51 %17.8 °C11 km/hENE23 km/h29.4 1007 hPa-
23/07/2021 16:3028.8 °C51 %17.8 °C6 km/hENE21 km/h28.9 1008 hPa-
23/07/2021 16:1528.9 °C48 %16.7 °C11 km/hENE23 km/h28.9 1008 hPa-
23/07/2021 15:5929.2 °C47 %16.7 °C6 km/hE21 km/h29.4 1008 hPa-
23/07/2021 15:4529.2 °C46 %16.7 °C14 km/hENE26 km/h29.4 1008 hPa-
23/07/2021 15:3029.2 °C44 %15.6 °C10 km/hE23 km/h29.4 1009 hPa-
23/07/2021 15:1529.1 °C41 %14.4 °C10 km/hESE19 km/h28.9 1009 hPa-
23/07/2021 15:0029.2 °C42 %15.0 °C18 km/hENE23 km/h29.4 1009 hPa-
23/07/2021 14:4528.6 °C42 %14.4 °C6 km/hENE18 km/h28.9 1009 hPa-
23/07/2021 14:3029.1 °C43 %15.0 °C10 km/hE19 km/h28.9 1009 hPa-
23/07/2021 14:1528.3 °C41 %13.9 °C8 km/hESE23 km/h28.3 1009 hPa-
23/07/2021 14:0028.5 °C41 %13.9 °C10 km/hENE23 km/h28.3 1009 hPa-
23/07/2021 13:4527.7 °C48 %15.6 °C18 km/hENE23 km/h27.8 1010 hPa-
23/07/2021 13:3027.7 °C49 %16.1 °C3 km/hENE23 km/h27.8 1010 hPa-
23/07/2021 13:1527.4 °C49 %15.6 °C6 km/hENE23 km/h27.2 1010 hPa-
23/07/2021 13:0026.7 °C52 %16.1 °C8 km/hENE21 km/h26.7 1011 hPa-
23/07/2021 12:4527.1 °C48 %15.0 °C11 km/hE24 km/h26.7 1011 hPa-
23/07/2021 12:3026.9 °C54 %16.7 °C19 km/hENE29 km/h26.7 1011 hPa-
23/07/2021 12:1526.1 °C56 %16.7 °C6 km/hENE26 km/h26.1 1011 hPa-
23/07/2021 12:0025.9 °C56 %16.7 °C13 km/hENE24 km/h25.6 1011 hPa-
23/07/2021 11:4525.8 °C56 %16.1 °C13 km/hENE24 km/h25.6 1012 hPa-
23/07/2021 11:3025.4 °C57 %16.1 °C14 km/hENE24 km/h25.0 1012 hPa-
23/07/2021 11:1525.3 °C59 %16.7 °C6 km/hSE23 km/h25.6 1012 hPa-
23/07/2021 11:0024.8 °C62 %17.2 °C18 km/hENE21 km/h25.0 1012 hPa-
23/07/2021 10:4523.9 °C67 %17.2 °C-E19 km/h23.9 1013 hPa-
23/07/2021 10:3023.4 °C67 %16.7 °C6 km/hENE11 km/h23.3 1012 hPa-
23/07/2021 10:1523.0 °C69 %17.2 °C3 km/hE11 km/h22.8 1013 hPa-
23/07/2021 09:5921.9 °C71 %16.7 °C10 km/hENE14 km/h22.2 1013 hPa-
23/07/2021 09:4521.3 °C73 %16.1 °C6 km/hENE16 km/h21.1 1013 hPa-
23/07/2021 09:3020.5 °C75 %16.1 °C3 km/hNE14 km/h20.6 1013 hPa-
23/07/2021 09:1519.8 °C77 %15.6 °C11 km/hENE13 km/h20.0 1013 hPa-
23/07/2021 09:0019.9 °C77 %15.6 °C-ENE11 km/h20.0 1013 hPa-
23/07/2021 08:4518.9 °C83 %16.1 °C-N2 km/h18.9 1014 hPa-
23/07/2021 08:3017.9 °C89 %16.1 °C-NE6 km/h17.8 1014 hPa-
23/07/2021 08:1515.7 °C91 %14.4 °C---15.6 1014 hPa-
23/07/2021 08:0014.9 °C91 %13.3 °C---15.0 1014 hPa-
23/07/2021 07:4514.9 °C91 %13.3 °C-O2 km/h15.0 1014 hPa-
23/07/2021 07:3014.3 °C91 %12.8 °C---14.4 1014 hPa-
23/07/2021 07:1513.2 °C91 %11.7 °C---13.3 1014 hPa-
23/07/2021 07:0012.6 °C91 %11.1 °C---12.8 1014 hPa-
23/07/2021 06:4512.1 °C91 %10.6 °C---12.2 1014 hPa-
23/07/2021 06:3012.1 °C91 %10.6 °C---12.2 1014 hPa-
23/07/2021 06:1512.3 °C91 %11.1 °C---12.2 1014 hPa-
23/07/2021 06:0012.5 °C91 %11.1 °C---12.8 1014 hPa-
23/07/2021 05:4512.9 °C91 %11.7 °C---12.8 1014 hPa-
23/07/2021 05:3013.1 °C91 %11.7 °C---13.3 1014 hPa-
23/07/2021 05:1513.1 °C91 %11.7 °C---13.3 1014 hPa-
23/07/2021 05:0012.9 °C91 %11.7 °C-NO2 km/h12.8 1015 hPa-
23/07/2021 04:4512.9 °C91 %11.7 °C---12.8 1015 hPa-
23/07/2021 04:3013.5 °C91 %12.2 °C---13.3 1015 hPa-
23/07/2021 04:1513.5 °C91 %12.2 °C---13.3 1015 hPa-
23/07/2021 04:0013.9 °C91 %12.2 °C---13.9 1015 hPa-
23/07/2021 03:4514.1 °C90 %12.2 °C---13.9 1015 hPa-
23/07/2021 03:3014.3 °C90 %12.8 °C---14.4 1015 hPa-
23/07/2021 03:1514.6 °C90 %12.8 °C---14.4 1015 hPa-
23/07/2021 02:5914.7 °C89 %12.8 °C---14.4 1015 hPa-
23/07/2021 02:4514.9 °C89 %13.3 °C---15.0 1015 hPa-
23/07/2021 02:3014.9 °C89 %13.3 °C-NO2 km/h15.0 1015 hPa-
23/07/2021 02:1515.3 °C88 %13.3 °C-OSO2 km/h15.6 1015 hPa-
23/07/2021 02:0115.4 °C88 %13.3 °C---15.6 1016 hPa-
23/07/2021 01:4515.8 °C86 %13.3 °C---15.6 1016 hPa-
23/07/2021 01:3016.1 °C86 %13.9 °C---16.1 1016 hPa-
23/07/2021 01:1516.2 °C85 %13.9 °C---16.1 1016 hPa-
23/07/2021 01:0016.6 °C83 %13.9 °C---16.7 1016 hPa-
23/07/2021 00:4517.4 °C81 %13.9 °C---17.2 1016 hPa-
23/07/2021 00:3017.7 °C80 %14.4 °C-SSO2 km/h17.8 1016 hPa-
23/07/2021 00:1518.6 °C76 %14.4 °C-SSO3 km/h18.3 1016 hPa-
23/07/2021 00:0019.4 °C72 %14.4 °C-ENE2 km/h19.4 1016 hPa-


Minima :

Température : 12.1 °C
Humidité : 41 %
Point de rosée : 10.6 °C
Vent moyen : 2 km/h
Windchill : 12.2
Pression atm. : 1006 hPa
Maxima :

Température : 30.1 °C
Humidité : 91 %
Point de rosée : 18.3 °C
Vent moyen : 19 km/h
Windchill : 30.0
Pression atm. : 1016 hPa
Rafales max : 29 km/h
Cumul de pluie sur 24H : 0 mm

Oisy est une commune du département Nièvre (58).
La station météorologique du réseau de l'association la plus proche de Oisy est celle de Fâchin



Icône Facebook Association Météo Centre Icône Twitter Association Météo Centre Icône Chaîne Youtube Association Météo Centre Icône contact Association Météo Centre Icône Insta Association Météo Centre